Time;durP1;ratioP1;P1;durP2;ratioP2;P2;SDS_P1;SDS_P2;PMS_P1;PMS_P2;Temp;Humidity;BMP_temperature;BMP_pressure;BME280_temperature;BME280_humidity;BME280_pressure;Samples;Min_cycle;Max_cycle;Signal;HPM_P1;HPM_P2
2023/11/06 00:00:25;;;;;;;1.58;0.43;;;;;;;7.34;nan;94537.19;2090230;28;20057;-58
2023/11/06 00:01:27;;;;;;;2.03;0.30;;;;;;;7.27;nan;94532.41;2090114;28;20397;-57
2023/11/06 00:02:28;;;;;;;3.60;0.40;;;;;;;7.22;nan;94538.75;2089483;28;20049;-58
2023/11/06 00:03:29;;;;;;;2.40;0.40;;;;;;;7.15;nan;94546.00;2090155;28;20072;-59
2023/11/06 00:04:31;;;;;;;1.00;0.38;;;;;;;7.16;nan;94521.00;2090271;28;20041;-60
2023/11/06 00:05:32;;;;;;;0.82;0.30;;;;;;;7.21;nan;94548.22;2090100;28;20359;-59
2023/11/06 00:06:33;;;;;;;0.75;0.38;;;;;;;7.18;nan;94535.47;2089669;28;20044;-59
2023/11/06 00:07:34;;;;;;;2.10;0.63;;;;;;;7.20;nan;94546.56;2089694;28;20064;-58
2023/11/06 00:08:36;;;;;;;1.77;0.40;;;;;;;7.16;nan;94537.31;2090180;28;20057;-62
2023/11/06 00:09:37;;;;;;;2.50;0.30;;;;;;;7.19;nan;94552.66;2090408;28;20076;-60
2023/11/06 00:10:38;;;;;;;1.70;0.32;;;;;;;7.22;nan;94544.72;2089822;28;20049;-58
2023/11/06 00:11:40;;;;;;;0.55;0.22;;;;;;;7.18;nan;94540.66;2090490;28;20049;-58
2023/11/06 00:12:41;;;;;;;1.98;0.38;;;;;;;7.28;nan;94541.78;2090469;28;20370;-58
2023/11/06 00:13:43;;;;;;;0.85;0.22;;;;;;;7.28;nan;94553.88;2090047;28;20059;-57
2023/11/06 00:14:45;;;;;;;1.52;0.35;;;;;;;7.22;nan;94560.22;2090176;28;20048;-58
2023/11/06 00:15:47;;;;;;;0.80;0.30;;;;;;;7.19;nan;94567.28;2090070;28;20048;-57
2023/11/06 00:16:51;;;;;;;0.40;0.30;;;;;;;7.15;nan;94569.22;2090180;28;20048;-56
2023/11/06 00:17:52;;;;;;;2.30;0.63;;;;;;;7.14;nan;94561.59;2090085;28;20477;-58
2023/11/06 00:18:53;;;;;;;2.15;0.50;;;;;;;7.10;nan;94560.91;2090084;28;20045;-61
2023/11/06 00:19:54;;;;;;;0.77;0.35;;;;;;;7.11;nan;94570.34;2090503;28;20048;-59
2023/11/06 00:20:58;;;;;;;1.20;0.30;;;;;;;7.16;nan;94568.28;2090100;28;20056;-58
2023/11/06 00:21:59;;;;;;;1.73;0.40;;;;;;;7.31;nan;94565.78;2089996;28;20067;-63
2023/11/06 00:23:00;;;;;;;0.70;0.30;;;;;;;7.31;nan;94578.69;2089951;28;20060;-59
2023/11/06 00:24:01;;;;;;;2.50;0.22;;;;;;;7.27;nan;94581.44;2090044;28;20377;-58
2023/11/06 00:25:05;;;;;;;0.32;0.17;;;;;;;7.27;nan;94568.53;2089778;28;20444;-58
2023/11/06 00:26:06;;;;;;;2.05;0.30;;;;;;;7.29;nan;94581.34;2089855;28;20041;-59
2023/11/06 00:27:08;;;;;;;1.40;0.77;;;;;;;7.31;nan;94581.28;2080738;28;20057;-59
2023/11/06 00:28:09;;;;;;;2.05;0.40;;;;;;;7.29;nan;94592.50;2073117;28;20073;-59
2023/11/06 00:29:11;;;;;;;0.80;0.20;;;;;;;7.27;nan;94584.03;2081281;28;20049;-59
2023/11/06 00:30:12;;;;;;;2.75;0.40;;;;;;;7.27;nan;94586.63;2089410;28;20052;-59
2023/11/06 00:31:13;;;;;;;6.38;0.57;;;;;;;7.24;nan;94606.59;2089776;28;20057;-59
2023/11/06 00:32:14;;;;;;;0.52;0.20;;;;;;;7.26;nan;94605.59;2090062;28;20404;-61
2023/11/06 00:33:15;;;;;;;0.43;0.20;;;;;;;7.20;nan;94598.19;2090116;28;20049;-59
2023/11/06 00:34:16;;;;;;;3.20;0.68;;;;;;;7.18;nan;94601.78;2089514;28;20079;-61
2023/11/06 00:35:17;;;;;;;1.15;0.40;;;;;;;7.18;nan;94618.09;2089507;28;20077;-61
2023/11/06 00:36:22;;;;;;;0.05;0.05;;;;;;;7.10;nan;94619.44;2090452;28;20056;-59
2023/11/06 00:37:23;;;;;;;1.48;0.45;;;;;;;7.13;nan;94614.94;2090250;28;20037;-58
2023/11/06 00:38:25;;;;;;;0.52;0.30;;;;;;;7.09;nan;94613.47;2090158;28;20504;-60
2023/11/06 00:39:26;;;;;;;1.92;0.43;;;;;;;7.05;nan;94619.69;2088705;28;20053;-58
2023/11/06 00:40:27;;;;;;;1.00;0.35;;;;;;;7.00;nan;94625.13;2089464;28;20049;-57
2023/11/06 00:41:28;;;;;;;1.40;0.50;;;;;;;6.99;nan;94627.78;2090531;28;20057;-59
2023/11/06 00:42:29;;;;;;;1.27;0.25;;;;;;;6.98;nan;94626.13;2090924;28;20056;-59
2023/11/06 00:43:30;;;;;;;1.73;0.30;;;;;;;7.05;nan;94648.91;2091347;28;20064;-57
2023/11/06 00:44:31;;;;;;;0.60;0.40;;;;;;;7.08;nan;94629.84;2091515;28;20045;-57
2023/11/06 00:45:32;;;;;;;2.10;0.50;;;;;;;7.08;nan;94627.28;2091210;28;20060;-57
2023/11/06 00:46:34;;;;;;;1.30;0.43;;;;;;;7.03;nan;94644.75;2091005;28;20492;-59
2023/11/06 00:47:35;;;;;;;1.20;0.25;;;;;;;7.01;nan;94641.44;2081934;28;20536;-59
2023/11/06 00:48:37;;;;;;;0.30;0.25;;;;;;;7.01;nan;94642.28;2082403;28;20045;-59
2023/11/06 00:49:38;;;;;;;1.95;0.50;;;;;;;6.97;nan;94647.69;2091623;28;20049;-57
2023/11/06 00:50:39;;;;;;;0.17;0.10;;;;;;;7.03;nan;94640.44;2091277;28;20040;-57
2023/11/06 00:51:40;;;;;;;0.73;0.30;;;;;;;7.02;nan;94643.09;2091730;28;20388;-61
2023/11/06 00:52:41;;;;;;;1.48;0.50;;;;;;;7.03;nan;94643.03;2091303;28;20057;-58
2023/11/06 00:53:43;;;;;;;2.05;0.40;;;;;;;7.00;nan;94655.25;2091765;28;20056;-57
2023/11/06 00:54:45;;;;;;;0.52;0.20;;;;;;;6.94;nan;94646.09;2091615;28;20049;-59
2023/11/06 00:55:46;;;;;;;1.40;0.40;;;;;;;6.95;nan;94662.41;2091743;28;20044;-57
2023/11/06 00:56:47;;;;;;;1.15;0.50;;;;;;;7.01;nan;94646.63;2091183;28;20061;-60
2023/11/06 00:57:49;;;;;;;1.02;0.20;;;;;;;7.02;nan;94653.44;2091709;28;20053;-62
2023/11/06 00:58:50;;;;;;;2.22;0.57;;;;;;;7.00;nan;94650.94;2091417;28;20049;-57
2023/11/06 00:59:52;;;;;;;1.02;0.38;;;;;;;6.97;nan;94652.84;2091009;28;20501;-61
2023/11/06 01:00:53;;;;;;;2.42;0.63;;;;;;;7.01;nan;94631.13;2082818;28;20056;-58
2023/11/06 01:01:55;;;;;;;0.50;0.20;;;;;;;7.09;nan;94657.34;2082643;28;20440;-59
2023/11/06 01:02:56;;;;;;;0.85;0.30;;;;;;;7.05;nan;94661.81;2090922;28;20052;-60
2023/11/06 01:03:57;;;;;;;1.90;0.50;;;;;;;7.06;nan;94649.78;2091541;28;20107;-59
2023/11/06 01:04:59;;;;;;;0.50;0.30;;;;;;;7.07;nan;94657.41;2090751;28;20495;-58
2023/11/06 01:06:00;;;;;;;1.33;0.68;;;;;;;7.04;nan;94660.16;2090903;28;20049;-58
2023/11/06 01:07:02;;;;;;;2.25;0.40;;;;;;;6.97;nan;94648.50;2090885;28;20057;-58
2023/11/06 01:08:04;;;;;;;2.15;0.50;;;;;;;6.96;nan;94670.09;2090794;28;20045;-58
2023/11/06 01:09:07;;;;;;;2.75;0.63;;;;;;;7.04;nan;94651.59;2090707;28;20045;-58
2023/11/06 01:10:08;;;;;;;0.52;0.30;;;;;;;7.07;nan;94666.91;2090800;28;20045;-58
2023/11/06 01:11:10;;;;;;;0.88;0.30;;;;;;;7.13;nan;94635.59;2090514;28;20504;-58
2023/11/06 01:12:11;;;;;;;0.63;0.20;;;;;;;7.10;nan;94663.34;2091301;28;20041;-59
2023/11/06 01:13:13;;;;;;;0.80;0.50;;;;;;;7.10;nan;94666.75;2091067;28;20045;-59
2023/11/06 01:14:15;;;;;;;2.08;0.77;;;;;;;6.98;nan;94646.78;2091073;28;20064;-59
2023/11/06 01:15:16;;;;;;;1.23;0.60;;;;;;;7.07;nan;94660.00;2091394;28;20049;-61
2023/11/06 01:16:20;;;;;;;0.68;0.30;;;;;;;7.10;nan;94673.66;2091004;28;20057;-59
2023/11/06 01:17:21;;;;;;;2.40;0.60;;;;;;;7.02;nan;94671.50;2091351;28;20053;-58
2023/11/06 01:18:22;;;;;;;0.57;0.30;;;;;;;7.11;nan;94673.59;2090883;28;20060;-59
2023/11/06 01:19:23;;;;;;;3.40;0.77;;;;;;;7.05;nan;94669.56;2090918;28;20052;-59
2023/11/06 01:20:25;;;;;;;3.72;0.50;;;;;;;7.03;nan;94678.31;2091496;28;20060;-58
2023/11/06 01:21:26;;;;;;;1.30;0.30;;;;;;;7.01;nan;94672.41;2091280;28;20484;-58
2023/11/06 01:22:28;;;;;;;2.47;0.40;;;;;;;6.95;nan;94659.81;2091317;28;20049;-58
2023/11/06 01:23:29;;;;;;;1.42;0.60;;;;;;;6.93;nan;94664.25;2091142;28;20408;-58
2023/11/06 01:24:30;;;;;;;2.50;0.50;;;;;;;6.89;nan;94678.22;2090484;28;20068;-57
2023/11/06 01:25:31;;;;;;;1.58;0.22;;;;;;;6.90;nan;94672.19;2089802;28;20048;-58
2023/11/06 01:26:32;;;;;;;2.90;0.63;;;;;;;6.92;nan;94673.72;2090678;28;20045;-58
2023/11/06 01:27:33;;;;;;;1.85;0.43;;;;;;;6.90;nan;94670.41;2090738;28;20044;-59
2023/11/06 01:28:35;;;;;;;0.75;0.32;;;;;;;6.85;nan;94683.56;2091410;28;20048;-58
2023/11/06 01:29:36;;;;;;;0.68;0.40;;;;;;;6.95;nan;94683.06;2091225;28;20041;-59
2023/11/06 01:30:37;;;;;;;2.25;0.60;;;;;;;6.93;nan;94682.34;2091295;28;20393;-58
2023/11/06 01:31:38;;;;;;;1.65;0.30;;;;;;;6.85;nan;94682.75;2091225;28;20052;-58
2023/11/06 01:32:39;;;;;;;2.95;0.52;;;;;;;6.85;nan;94672.41;2091299;28;20048;-59
2023/11/06 01:33:40;;;;;;;3.13;1.00;;;;;;;6.82;nan;94688.91;2091391;28;20052;-59
2023/11/06 01:34:42;;;;;;;1.35;0.43;;;;;;;6.81;nan;94681.22;2091210;28;20052;-60
2023/11/06 01:35:43;;;;;;;2.67;0.55;;;;;;;6.85;nan;94667.25;2090755;28;20044;-59
2023/11/06 01:36:44;;;;;;;1.25;0.50;;;;;;;6.93;nan;94687.50;2082098;28;20053;-58
2023/11/06 01:37:45;;;;;;;0.68;0.20;;;;;;;6.85;nan;94688.72;2090715;28;20048;-58
2023/11/06 01:38:47;;;;;;;1.00;0.55;;;;;;;6.84;nan;94687.06;2091158;28;20064;-58
2023/11/06 01:39:48;;;;;;;1.75;0.40;;;;;;;6.80;nan;94689.88;2090592;28;20041;-58
2023/11/06 01:40:49;;;;;;;1.30;0.40;;;;;;;6.76;nan;94691.81;2090614;28;20416;-58
2023/11/06 01:41:50;;;;;;;1.08;0.43;;;;;;;6.72;nan;94695.44;2090856;28;20053;-58
2023/11/06 01:42:52;;;;;;;1.45;0.50;;;;;;;6.61;nan;94690.84;2090520;28;20041;-58
2023/11/06 01:43:53;;;;;;;2.67;0.50;;;;;;;6.60;nan;94691.78;2091062;28;20465;-59
2023/11/06 01:44:54;;;;;;;2.95;0.65;;;;;;;6.59;nan;94704.75;2090288;28;20053;-59
2023/11/06 01:45:55;;;;;;;0.90;0.20;;;;;;;6.59;nan;94697.84;2082200;28;20064;-58
2023/11/06 01:46:56;;;;;;;1.67;0.28;;;;;;;6.69;nan;94674.97;2082565;28;20053;-60
2023/11/06 01:47:57;;;;;;;3.25;0.50;;;;;;;6.70;nan;94699.03;2082673;28;20053;-59
2023/11/06 01:49:00;;;;;;;0.30;0.10;;;;;;;6.72;nan;94703.19;2089998;28;20060;-59
2023/11/06 01:50:03;;;;;;;0.55;0.40;;;;;;;6.72;nan;94707.53;2090142;28;20053;-58
2023/11/06 01:51:04;;;;;;;0.93;0.32;;;;;;;6.66;nan;94694.97;2089936;28;20049;-58
2023/11/06 01:52:06;;;;;;;1.00;0.10;;;;;;;6.67;nan;94706.94;2090778;28;20049;-59
2023/11/06 01:53:09;;;;;;;2.70;0.30;;;;;;;6.63;nan;94706.25;2089737;28;20068;-58
2023/11/06 01:54:12;;;;;;;0.95;0.43;;;;;;;6.68;nan;94701.66;2074293;28;20053;-58
2023/11/06 01:55:13;;;;;;;1.17;0.30;;;;;;;6.62;nan;94707.16;2074163;28;20050;-59
2023/11/06 01:56:14;;;;;;;2.67;0.20;;;;;;;6.66;nan;94711.25;2089987;28;20041;-57
2023/11/06 01:57:15;;;;;;;0.80;0.13;;;;;;;6.67;nan;94702.59;2082102;28;20061;-59
2023/11/06 01:58:17;;;;;;;0.28;0.20;;;;;;;6.66;nan;94698.38;2074018;28;20054;-58
2023/11/06 01:59:18;;;;;;;1.70;0.30;;;;;;;6.63;nan;94716.59;2073546;28;20050;-58
2023/11/06 02:00:19;;;;;;;1.55;0.40;;;;;;;6.56;nan;94722.97;2082337;28;20060;-58
2023/11/06 02:01:21;;;;;;;2.08;0.35;;;;;;;6.57;nan;94719.47;2089720;28;20057;-59
2023/11/06 02:02:22;;;;;;;2.30;0.25;;;;;;;6.56;nan;94713.47;2090076;28;20055;-57
2023/11/06 02:03:23;;;;;;;2.03;0.63;;;;;;;6.51;nan;94720.63;2089486;28;20125;-59
2023/11/06 02:04:24;;;;;;;2.58;0.28;;;;;;;6.52;nan;94703.38;2081612;28;20057;-60
2023/11/06 02:05:26;;;;;;;1.13;0.38;;;;;;;6.54;nan;94722.19;2090027;28;20512;-59
2023/11/06 02:06:30;;;;;;;1.70;0.43;;;;;;;6.51;nan;94722.38;2082385;28;20049;-60
2023/11/06 02:07:31;;;;;;;0.77;0.28;;;;;;;6.50;nan;94731.03;2083140;28;20060;-58
2023/11/06 02:08:33;;;;;;;2.03;0.40;;;;;;;6.45;nan;94736.41;2090950;28;20040;-57
2023/11/06 02:09:34;;;;;;;1.23;0.40;;;;;;;6.49;nan;94737.06;2082087;28;20425;-60
2023/11/06 02:10:35;;;;;;;4.93;0.40;;;;;;;6.47;nan;94733.75;2073879;28;20038;-58
2023/11/06 02:11:36;;;;;;;2.45;0.43;;;;;;;6.45;nan;94727.84;2081784;28;20068;-59
2023/11/06 02:12:38;;;;;;;0.95;0.40;;;;;;;6.43;nan;94732.25;2082508;28;20056;-59
2023/11/06 02:13:39;;;;;;;4.22;0.30;;;;;;;6.45;nan;94730.44;2082180;28;20049;-58
2023/11/06 02:14:53;;;;;;;0.40;0.22;;;;;;;6.49;nan;94732.75;2090845;28;20397;-59
2023/11/06 02:15:55;;;;;;;1.70;0.57;;;;;;;6.48;nan;94727.69;2090099;28;20493;-60
2023/11/06 02:16:59;;;;;;;0.85;0.30;;;;;;;6.52;nan;94722.31;2082458;28;20460;-58
2023/11/06 02:18:01;;;;;;;0.90;0.17;;;;;;;6.53;nan;94717.97;2081617;28;20532;-59
2023/11/06 02:19:02;;;;;;;2.75;0.40;;;;;;;6.47;nan;94723.41;2090341;28;20049;-59
2023/11/06 02:20:04;;;;;;;1.33;0.20;;;;;;;6.48;nan;94720.78;2090238;28;20053;-59
2023/11/06 02:21:06;;;;;;;1.73;0.47;;;;;;;6.47;nan;94723.41;2090433;28;20057;-58
2023/11/06 02:22:08;;;;;;;1.30;0.20;;;;;;;6.48;nan;94720.78;2081838;28;20054;-58
2023/11/06 02:23:09;;;;;;;0.65;0.30;;;;;;;6.50;nan;94733.59;2082030;28;20061;-57
2023/11/06 02:24:10;;;;;;;2.00;0.40;;;;;;;6.56;nan;94723.78;2089995;28;20064;-58
2023/11/06 02:25:11;;;;;;;1.38;0.63;;;;;;;6.54;nan;94719.63;2081731;28;20054;-59
2023/11/06 02:26:12;;;;;;;0.88;0.35;;;;;;;6.54;nan;94735.94;2089654;28;20092;-60
2023/11/06 02:27:15;;;;;;;2.45;0.45;;;;;;;6.48;nan;94725.94;2090486;28;20061;-60
2023/11/06 02:28:16;;;;;;;0.85;0.30;;;;;;;6.48;nan;94725.09;2090637;28;20045;-59
2023/11/06 02:29:17;;;;;;;1.65;0.30;;;;;;;6.54;nan;94719.63;2090465;28;20064;-59
2023/11/06 02:30:18;;;;;;;2.58;0.20;;;;;;;6.51;nan;94717.22;2090084;28;20041;-59
2023/11/06 02:31:19;;;;;;;1.38;0.80;;;;;;;6.51;nan;94720.63;2073842;28;20058;-59
2023/11/06 02:32:21;;;;;;;0.65;0.30;;;;;;;6.47;nan;94729.44;2082065;28;20508;-59
2023/11/06 02:33:22;;;;;;;0.65;0.15;;;;;;;6.48;nan;94715.63;2090333;28;20146;-58
2023/11/06 02:34:23;;;;;;;6.30;1.13;;;;;;;6.49;nan;94711.28;2090408;28;20057;-58
2023/11/06 02:35:24;;;;;;;1.40;0.30;;;;;;;6.55;nan;94711.81;2090267;28;20052;-60
2023/11/06 02:36:25;;;;;;;2.05;0.63;;;;;;;6.51;nan;94710.28;2081896;28;20041;-58
2023/11/06 02:37:27;;;;;;;1.58;0.30;;;;;;;6.48;nan;94720.78;2081916;28;20060;-58
2023/11/06 02:38:28;;;;;;;1.95;0.40;;;;;;;6.46;nan;94726.94;2090173;28;20053;-58
2023/11/06 02:39:29;;;;;;;1.95;0.35;;;;;;;6.48;nan;94717.38;2090046;28;20055;-58
2023/11/06 02:40:30;;;;;;;1.75;0.40;;;;;;;6.50;nan;94708.66;2090094;28;20526;-59
2023/11/06 02:41:31;;;;;;;0.70;0.32;;;;;;;6.58;nan;94721.16;2090755;28;20052;-59
2023/11/06 02:42:34;;;;;;;2.05;0.40;;;;;;;6.56;nan;94712.66;2090574;28;20056;-59
2023/11/06 02:43:35;;;;;;;4.40;0.88;;;;;;;6.56;nan;94717.81;2089741;28;20515;-59
2023/11/06 02:44:36;;;;;;;1.67;0.50;;;;;;;6.59;nan;94715.06;2089990;28;20045;-58
2023/11/06 02:45:37;;;;;;;0.60;0.20;;;;;;;6.60;nan;94720.16;2090816;28;20045;-59
2023/11/06 02:46:38;;;;;;;1.70;0.30;;;;;;;6.65;nan;94716.47;2090374;28;20425;-59
2023/11/06 02:47:40;;;;;;;0.77;0.17;;;;;;;6.71;nan;94729.06;2089091;28;20055;-59
2023/11/06 02:48:41;;;;;;;1.58;0.30;;;;;;;6.68;nan;94706.00;2089931;28;20052;-59
2023/11/06 02:49:42;;;;;;;2.63;0.20;;;;;;;6.70;nan;94704.19;2091029;28;20041;-59
2023/11/06 02:50:44;;;;;;;3.15;0.40;;;;;;;6.72;nan;94717.84;2090602;28;20045;-60
2023/11/06 02:51:45;;;;;;;1.08;0.32;;;;;;;6.71;nan;94713.56;2089738;28;20057;-59
2023/11/06 02:52:46;;;;;;;0.65;0.30;;;;;;;6.67;nan;94727.56;2089465;28;20448;-59
2023/11/06 02:53:47;;;;;;;2.33;0.63;;;;;;;6.62;nan;94732.97;2090548;28;20481;-59
2023/11/06 02:54:49;;;;;;;0.40;0.10;;;;;;;6.68;nan;94722.31;2090061;28;20492;-59
2023/11/06 02:55:50;;;;;;;2.30;0.43;;;;;;;6.68;nan;94732.63;2090428;28;20049;-60
2023/11/06 02:56:52;;;;;;;4.47;0.45;;;;;;;6.66;nan;94733.66;2081910;28;20521;-58
2023/11/06 02:57:53;;;;;;;1.17;0.68;;;;;;;6.67;nan;94737.88;2089864;28;20052;-58
2023/11/06 02:58:54;;;;;;;0.38;0.13;;;;;;;6.69;nan;94730.91;2090059;28;20424;-59
2023/11/06 02:59:55;;;;;;;1.55;0.50;;;;;;;6.80;nan;94733.75;2090778;28;20048;-59
2023/11/06 03:00:56;;;;;;;1.33;0.50;;;;;;;6.75;nan;94728.81;2090468;28;20061;-59
2023/11/06 03:01:57;;;;;;;0.85;0.17;;;;;;;6.76;nan;94742.56;2090456;28;20405;-59
2023/11/06 03:02:59;;;;;;;2.30;0.40;;;;;;;6.70;nan;94733.38;2090664;28;20040;-60
2023/11/06 03:04:00;;;;;;;1.02;0.30;;;;;;;6.71;nan;94742.81;2089989;28;20052;-59
2023/11/06 03:05:03;;;;;;;2.65;0.35;;;;;;;6.70;nan;94738.56;2090088;28;20052;-58
2023/11/06 03:06:05;;;;;;;0.60;0.20;;;;;;;6.65;nan;94735.38;2089961;28;20473;-58
2023/11/06 03:07:06;;;;;;;1.67;0.25;;;;;;;6.63;nan;94744.97;2090458;28;20496;-60
2023/11/06 03:08:07;;;;;;;1.45;0.50;;;;;;;6.58;nan;94744.38;2081984;28;20061;-59
2023/11/06 03:09:15;;;;;;;1.73;0.40;;;;;;;6.49;nan;94735.31;2081763;28;20041;-59
2023/11/06 03:10:16;;;;;;;3.95;0.13;;;;;;;6.54;nan;94740.25;2090603;28;20037;-58
2023/11/06 03:11:17;;;;;;;3.45;0.50;;;;;;;6.53;nan;94743.75;2090432;28;20053;-60
2023/11/06 03:12:18;;;;;;;1.42;0.50;;;;;;;6.50;nan;94741.34;2090613;28;20067;-59
2023/11/06 03:13:19;;;;;;;2.15;0.47;;;;;;;6.48;nan;94751.72;2090632;28;20041;-60
2023/11/06 03:14:20;;;;;;;1.42;0.40;;;;;;;6.51;nan;94746.41;2089830;28;20059;-58
2023/11/06 03:15:22;;;;;;;1.35;0.30;;;;;;;6.55;nan;94750.50;2089881;28;20053;-58
2023/11/06 03:16:23;;;;;;;3.90;0.70;;;;;;;6.55;nan;94750.50;2089364;28;20422;-59
2023/11/06 03:17:24;;;;;;;1.50;0.43;;;;;;;6.51;nan;94748.97;2081846;28;20049;-59
2023/11/06 03:18:25;;;;;;;2.78;0.70;;;;;;;6.58;nan;94755.50;2089844;28;20428;-58
2023/11/06 03:19:26;;;;;;;2.67;0.77;;;;;;;6.57;nan;94750.41;2090037;28;20053;-58
2023/11/06 03:20:27;;;;;;;3.05;0.88;;;;;;;6.63;nan;94755.28;2089468;28;20056;-59
2023/11/06 03:21:28;;;;;;;1.85;0.55;;;;;;;6.61;nan;94757.94;2090346;28;20052;-59
2023/11/06 03:22:29;;;;;;;2.72;0.40;;;;;;;6.60;nan;94761.44;2089447;28;20056;-59
2023/11/06 03:23:31;;;;;;;1.92;0.38;;;;;;;6.56;nan;94757.31;2089360;28;20501;-58
2023/11/06 03:24:32;;;;;;;3.28;0.82;;;;;;;6.56;nan;94754.75;2090376;28;20061;-58
2023/11/06 03:25:33;;;;;;;0.98;0.40;;;;;;;6.59;nan;94764.91;2090269;28;20044;-59
2023/11/06 03:26:34;;;;;;;2.58;0.60;;;;;;;6.57;nan;94771.03;2090314;28;20040;-58
2023/11/06 03:27:35;;;;;;;2.25;0.70;;;;;;;6.59;nan;94767.47;2090376;28;20040;-58
2023/11/06 03:28:38;;;;;;;1.60;0.55;;;;;;;6.55;nan;94765.16;2089492;28;20056;-59
2023/11/06 03:29:39;;;;;;;4.25;0.50;;;;;;;6.45;nan;94766.53;2090156;28;20417;-59
2023/11/06 03:30:40;;;;;;;1.30;0.50;;;;;;;6.41;nan;94771.00;2090292;28;20056;-58
2023/11/06 03:31:42;;;;;;;1.90;0.55;;;;;;;6.43;nan;94765.75;2090257;28;20056;-58
2023/11/06 03:32:43;;;;;;;2.25;0.50;;;;;;;6.43;nan;94771.75;2090370;28;20049;-58
2023/11/06 03:33:45;;;;;;;1.65;0.73;;;;;;;6.42;nan;94774.44;2090424;28;20043;-59
2023/11/06 03:34:46;;;;;;;0.93;0.32;;;;;;;6.42;nan;94783.00;2090417;28;20040;-58
2023/11/06 03:35:47;;;;;;;1.20;0.40;;;;;;;6.39;nan;94789.13;2090652;28;20048;-59
2023/11/06 03:36:50;;;;;;;0.93;0.43;;;;;;;6.40;nan;94785.63;2089850;28;20072;-58
2023/11/06 03:37:51;;;;;;;3.40;0.70;;;;;;;6.38;nan;94796.94;2089637;28;20472;-59
2023/11/06 03:38:53;;;;;;;2.67;0.63;;;;;;;6.35;nan;94782.44;2090517;28;20052;-59
2023/11/06 03:39:54;;;;;;;2.40;0.40;;;;;;;6.32;nan;94785.19;2090321;28;20044;-59
2023/11/06 03:40:55;;;;;;;3.38;0.85;;;;;;;6.26;nan;94793.22;2090257;28;20396;-58
2023/11/06 03:41:56;;;;;;;5.85;0.70;;;;;;;6.26;nan;94793.22;2090279;28;20049;-58
2023/11/06 03:42:58;;;;;;;3.38;0.47;;;;;;;6.26;nan;94798.38;2090642;28;20060;-59
2023/11/06 03:43:59;;;;;;;1.95;0.40;;;;;;;6.25;nan;94790.72;2089492;28;20053;-59
2023/11/06 03:45:00;;;;;;;3.70;0.60;;;;;;;6.23;nan;94797.69;2089577;28;20056;-58
2023/11/06 03:46:02;;;;;;;1.45;0.30;;;;;;;6.20;nan;94796.09;2090474;28;20057;-59
2023/11/06 03:47:04;;;;;;;2.00;0.50;;;;;;;6.25;nan;94795.88;2090255;28;20057;-59
2023/11/06 03:48:05;;;;;;;2.10;0.40;;;;;;;6.23;nan;94798.53;2089535;28;20041;-58
2023/11/06 03:49:06;;;;;;;2.40;0.52;;;;;;;6.21;nan;94810.66;2089713;28;20071;-58
2023/11/06 03:50:08;;;;;;;1.58;0.60;;;;;;;6.15;nan;94798.91;2090201;28;20057;-59
2023/11/06 03:51:09;;;;;;;0.95;0.47;;;;;;;6.14;nan;94797.22;2090757;28;20409;-59
2023/11/06 03:52:11;;;;;;;2.35;0.35;;;;;;;6.24;nan;94799.38;2090221;28;20057;-60
2023/11/06 03:53:13;;;;;;;3.53;0.57;;;;;;;6.20;nan;94798.66;2090323;28;20049;-59
2023/11/06 03:54:14;;;;;;;4.22;0.80;;;;;;;6.23;nan;94806.28;2090198;28;20059;-59
2023/11/06 03:55:15;;;;;;;1.17;0.50;;;;;;;6.18;nan;94800.50;2090316;28;20053;-59
2023/11/06 03:56:17;;;;;;;5.05;0.95;;;;;;;6.16;nan;94808.31;2090416;28;20056;-59
2023/11/06 03:57:18;;;;;;;3.88;0.77;;;;;;;6.16;nan;94808.31;2090082;28;20413;-59
2023/11/06 03:58:19;;;;;;;0.65;0.40;;;;;;;6.22;nan;94801.19;2090641;28;20053;-59
2023/11/06 03:59:20;;;;;;;2.22;0.47;;;;;;;6.20;nan;94806.41;2090349;28;20072;-59
2023/11/06 04:00:21;;;;;;;1.30;0.40;;;;;;;6.22;nan;94812.31;2090162;28;20045;-58
2023/11/06 04:01:22;;;;;;;4.10;0.82;;;;;;;6.19;nan;94804.75;2090158;28;20059;-59
2023/11/06 04:02:24;;;;;;;4.10;0.70;;;;;;;6.22;nan;94804.59;2090151;28;20048;-59
2023/11/06 04:03:25;;;;;;;5.28;1.08;;;;;;;6.24;nan;94799.38;2090310;28;20378;-59
2023/11/06 04:04:26;;;;;;;6.18;0.70;;;;;;;6.19;nan;94807.31;2090318;28;20048;-59
2023/11/06 04:05:27;;;;;;;3.67;1.25;;;;;;;6.19;nan;94812.47;2090130;28;20048;-58
2023/11/06 04:06:29;;;;;;;2.60;0.60;;;;;;;6.17;nan;94807.41;2090315;28;20037;-59
2023/11/06 04:07:30;;;;;;;2.67;0.60;;;;;;;6.12;nan;94793.91;2089799;28;20048;-59
2023/11/06 04:08:31;;;;;;;3.38;0.70;;;;;;;6.18;nan;94805.66;2090362;28;20040;-58
2023/11/06 04:09:32;;;;;;;6.30;0.70;;;;;;;6.15;nan;94819.53;2090257;28;20052;-59
2023/11/06 04:10:34;;;;;;;3.08;0.68;;;;;;;6.14;nan;94806.72;2090237;28;20056;-59
2023/11/06 04:11:35;;;;;;;4.60;0.70;;;;;;;6.16;nan;94807.47;2089859;28;20397;-59
2023/11/06 04:12:37;;;;;;;1.30;0.32;;;;;;;6.13;nan;94810.22;2090299;28;20048;-59
2023/11/06 04:13:38;;;;;;;2.30;0.50;;;;;;;6.15;nan;94803.25;2090050;28;20052;-59
2023/11/06 04:14:39;;;;;;;5.30;0.73;;;;;;;6.18;nan;94816.81;2090030;28;20075;-59
2023/11/06 04:15:40;;;;;;;1.17;0.30;;;;;;;6.26;nan;94813.03;2091831;28;20410;-59
2023/11/06 04:16:42;;;;;;;2.45;0.65;;;;;;;6.30;nan;94811.94;2091887;28;20052;-59
2023/11/06 04:17:43;;;;;;;1.20;0.32;;;;;;;6.29;nan;94818.03;2091995;28;20064;-59
2023/11/06 04:18:44;;;;;;;0.75;0.40;;;;;;;6.27;nan;94814.69;2091763;28;20053;-59
2023/11/06 04:19:45;;;;;;;2.55;0.70;;;;;;;6.27;nan;94820.66;2091880;28;20041;-59
2023/11/06 04:20:46;;;;;;;1.60;0.45;;;;;;;6.29;nan;94815.44;2092036;28;20060;-59
2023/11/06 04:21:47;;;;;;;3.88;1.00;;;;;;;6.30;nan;94810.19;2091459;28;20048;-59
2023/11/06 04:22:48;;;;;;;1.52;0.60;;;;;;;6.29;nan;94823.19;2091574;28;20409;-58
2023/11/06 04:23:50;;;;;;;2.00;0.38;;;;;;;6.29;nan;94812.88;2091920;28;20045;-60
2023/11/06 04:24:51;;;;;;;1.05;0.30;;;;;;;6.34;nan;94808.31;2091745;28;20408;-60
2023/11/06 04:25:52;;;;;;;3.08;0.50;;;;;;;6.35;nan;94817.72;2091717;28;20056;-59
2023/11/06 04:26:53;;;;;;;1.95;0.38;;;;;;;6.29;nan;94821.44;2092115;28;20061;-59
2023/11/06 04:27:54;;;;;;;1.92;0.60;;;;;;;6.20;nan;94814.13;2091596;28;20060;-59
2023/11/06 04:28:55;;;;;;;4.50;0.50;;;;;;;6.15;nan;94808.41;2092073;28;20052;-59
2023/11/06 04:29:56;;;;;;;4.05;0.90;;;;;;;6.10;nan;94813.78;2091758;28;20061;-59
2023/11/06 04:30:57;;;;;;;1.67;0.40;;;;;;;6.07;nan;94816.50;2091539;28;20132;-59
2023/11/06 04:32:01;;;;;;;2.97;0.60;;;;;;;6.11;nan;94810.28;2091672;28;20425;-59
2023/11/06 04:33:03;;;;;;;2.17;0.38;;;;;;;6.08;nan;94812.16;2091788;28;20432;-59
2023/11/06 04:34:04;;;;;;;1.02;0.40;;;;;;;6.04;nan;94821.81;2091130;28;20052;-60
2023/11/06 04:35:08;;;;;;;3.88;0.70;;;;;;;5.98;nan;94819.50;2091188;28;20052;-58
2023/11/06 04:36:10;;;;;;;3.47;1.00;;;;;;;6.03;nan;94817.53;2091684;28;20052;-58
2023/11/06 04:37:12;;;;;;;2.35;0.60;;;;;;;6.01;nan;94815.94;2091635;28;20053;-58
2023/11/06 04:38:13;;;;;;;2.38;0.60;;;;;;;5.98;nan;94829.81;2091308;28;20059;-59
2023/11/06 04:39:16;;;;;;;2.90;0.77;;;;;;;5.96;nan;94823.88;2091418;28;20057;-58
2023/11/06 04:40:19;;;;;;;3.05;0.45;;;;;;;5.92;nan;94823.19;2091101;28;20068;-58
2023/11/06 04:41:20;;;;;;;1.17;0.45;;;;;;;5.92;nan;94828.34;2090753;28;20045;-59
2023/11/06 04:42:22;;;;;;;0.77;0.30;;;;;;;5.95;nan;94829.97;2091282;28;20044;-60
2023/11/06 04:43:23;;;;;;;3.92;0.52;;;;;;;5.98;nan;94829.81;2091564;28;20044;-57
2023/11/06 04:44:24;;;;;;;2.88;0.50;;;;;;;6.01;nan;94827.09;2091541;28;20053;-58
2023/11/06 04:45:26;;;;;;;1.17;0.30;;;;;;;5.99;nan;94834.06;2091759;28;20520;-58
2023/11/06 04:46:27;;;;;;;3.25;0.77;;;;;;;5.94;nan;94834.28;2091602;28;20052;-58
2023/11/06 04:47:28;;;;;;;1.95;0.50;;;;;;;5.88;nan;94828.53;2091558;28;20056;-58
2023/11/06 04:48:29;;;;;;;3.33;0.70;;;;;;;5.93;nan;94827.47;2091308;28;20057;-59
2023/11/06 04:49:30;;;;;;;2.58;0.70;;;;;;;5.91;nan;94823.28;2091538;28;20057;-59
2023/11/06 04:50:31;;;;;;;3.58;0.75;;;;;;;5.86;nan;94820.06;2091679;28;20072;-58
2023/11/06 04:51:32;;;;;;;1.52;0.47;;;;;;;5.85;nan;94829.53;2091584;28;20060;-58
2023/11/06 04:52:33;;;;;;;1.27;0.45;;;;;;;5.89;nan;94828.47;2091429;28;20049;-59
2023/11/06 04:53:37;;;;;;;4.53;0.63;;;;;;;5.90;nan;94835.28;2091522;28;20047;-58
2023/11/06 04:54:41;;;;;;;3.65;0.85;;;;;;;5.86;nan;94831.22;2091598;28;20053;-59
2023/11/06 04:55:42;;;;;;;3.30;0.70;;;;;;;5.82;nan;94834.81;2091430;28;20060;-59
2023/11/06 04:56:43;;;;;;;1.65;0.82;;;;;;;5.80;nan;94826.34;2091609;28;20040;-58
2023/11/06 04:57:44;;;;;;;0.75;0.30;;;;;;;5.80;nan;94836.66;2091944;28;20041;-59
2023/11/06 04:58:45;;;;;;;2.92;0.70;;;;;;;5.80;nan;94836.66;2091717;28;20048;-60
2023/11/06 04:59:46;;;;;;;2.63;0.50;;;;;;;5.77;nan;94841.94;2091479;28;20493;-59